sensor_id;sensor_type;location;lat;lon;timestamp;temperature;humidity
55711;DHT22;41612;51.994;5.880;2023-04-15T00:59:24;10.20;76.10
55711;DHT22;41612;51.994;5.880;2023-04-15T01:01:51;10.20;76.10
55711;DHT22;41612;51.994;5.880;2023-04-15T01:04:17;10.20;75.90
55711;DHT22;41612;51.994;5.880;2023-04-15T01:06:42;10.20;76.60
55711;DHT22;41612;51.994;5.880;2023-04-15T01:09:09;10.20;76.10
55711;DHT22;41612;51.994;5.880;2023-04-15T01:11:38;10.10;75.70
55711;DHT22;41612;51.994;5.880;2023-04-15T01:14:08;10.10;75.40
55711;DHT22;41612;51.994;5.880;2023-04-15T01:16:36;10.10;76.00
55711;DHT22;41612;51.994;5.880;2023-04-15T01:19:08;10.00;76.20
55711;DHT22;41612;51.994;5.880;2023-04-15T01:21:38;10.10;75.90
55711;DHT22;41612;51.994;5.880;2023-04-15T01:24:08;10.00;76.00
55711;DHT22;41612;51.994;5.880;2023-04-15T01:26:39;9.90;74.60
55711;DHT22;41612;51.994;5.880;2023-04-15T01:29:07;10.00;76.10
55711;DHT22;41612;51.994;5.880;2023-04-15T01:31:33;9.90;76.20
55711;DHT22;41612;51.994;5.880;2023-04-15T01:34:00;9.90;76.50
55711;DHT22;41612;51.994;5.880;2023-04-15T01:36:26;9.90;75.60
55711;DHT22;41612;51.994;5.880;2023-04-15T01:38:52;9.90;76.10
55711;DHT22;41612;51.994;5.880;2023-04-15T01:41:26;9.80;76.10
55711;DHT22;41612;51.994;5.880;2023-04-15T01:43:53;9.80;75.60
55711;DHT22;41612;51.994;5.880;2023-04-15T01:46:19;9.80;76.10
55711;DHT22;41612;51.994;5.880;2023-04-15T01:48:45;9.80;76.20
55711;DHT22;41612;51.994;5.880;2023-04-15T01:51:11;9.80;76.30
55711;DHT22;41612;51.994;5.880;2023-04-15T01:53:38;9.80;75.90
55711;DHT22;41612;51.994;5.880;2023-04-15T01:56:04;9.80;75.70
55711;DHT22;41612;51.994;5.880;2023-04-15T01:58:31;9.80;76.10
55711;DHT22;41612;51.994;5.880;2023-04-15T02:00:57;9.80;76.40
55711;DHT22;41612;51.994;5.880;2023-04-15T02:03:24;9.80;76.10
55711;DHT22;41612;51.994;5.880;2023-04-15T02:05:51;9.70;76.20
55711;DHT22;41612;51.994;5.880;2023-04-15T02:08:20;9.70;75.60
55711;DHT22;41612;51.994;5.880;2023-04-15T02:10:45;9.70;75.90
55711;DHT22;41612;51.994;5.880;2023-04-15T02:13:12;9.70;75.70
55711;DHT22;41612;51.994;5.880;2023-04-15T02:15:38;9.70;76.10
55711;DHT22;41612;51.994;5.880;2023-04-15T02:18:04;9.70;76.20
55711;DHT22;41612;51.994;5.880;2023-04-15T02:20:30;9.70;76.50
55711;DHT22;41612;51.994;5.880;2023-04-15T02:22:57;9.70;76.30
55711;DHT22;41612;51.994;5.880;2023-04-15T02:25:23;9.60;76.30
55711;DHT22;41612;51.994;5.880;2023-04-15T02:27:51;9.60;76.50
55711;DHT22;41612;51.994;5.880;2023-04-15T02:30:20;9.60;76.50
55711;DHT22;41612;51.994;5.880;2023-04-15T02:32:51;9.60;76.50
55711;DHT22;41612;51.994;5.880;2023-04-15T02:35:17;9.60;76.60
55711;DHT22;41612;51.994;5.880;2023-04-15T02:37:46;9.50;76.50
55711;DHT22;41612;51.994;5.880;2023-04-15T02:40:12;9.50;76.60
55711;DHT22;41612;51.994;5.880;2023-04-15T02:42:39;9.50;76.40
55711;DHT22;41612;51.994;5.880;2023-04-15T02:45:06;9.40;76.60
55711;DHT22;41612;51.994;5.880;2023-04-15T02:47:34;9.40;76.50
55711;DHT22;41612;51.994;5.880;2023-04-15T02:50:11;9.40;76.70
55711;DHT22;41612;51.994;5.880;2023-04-15T02:52:39;9.30;76.60
55711;DHT22;41612;51.994;5.880;2023-04-15T02:55:06;9.20;76.20
55711;DHT22;41612;51.994;5.880;2023-04-15T02:57:33;9.20;76.70
55711;DHT22;41612;51.994;5.880;2023-04-15T03:00:05;9.20;76.90
55711;DHT22;41612;51.994;5.880;2023-04-15T03:02:35;9.10;76.90
55711;DHT22;41612;51.994;5.880;2023-04-15T03:05:02;9.00;77.40
55711;DHT22;41612;51.994;5.880;2023-04-15T03:07:29;9.00;77.70
55711;DHT22;41612;51.994;5.880;2023-04-15T03:09:55;9.10;77.70
55711;DHT22;41612;51.994;5.880;2023-04-15T03:12:21;9.00;77.80
55711;DHT22;41612;51.994;5.880;2023-04-15T03:14:47;9.00;77.80
55711;DHT22;41612;51.994;5.880;2023-04-15T03:17:14;8.90;77.90
55711;DHT22;41612;51.994;5.880;2023-04-15T03:19:43;8.90;78.20
55711;DHT22;41612;51.994;5.880;2023-04-15T03:22:10;8.90;78.20
55711;DHT22;41612;51.994;5.880;2023-04-15T03:24:36;8.80;78.30
55711;DHT22;41612;51.994;5.880;2023-04-15T03:27:02;8.80;78.40
55711;DHT22;41612;51.994;5.880;2023-04-15T03:29:28;8.70;78.20
55711;DHT22;41612;51.994;5.880;2023-04-15T03:31:54;8.80;78.60
55711;DHT22;41612;51.994;5.880;2023-04-15T03:34:20;8.80;78.60
55711;DHT22;41612;51.994;5.880;2023-04-15T03:36:48;8.80;78.60
55711;DHT22;41612;51.994;5.880;2023-04-15T03:39:14;8.70;78.70
55711;DHT22;41612;51.994;5.880;2023-04-15T03:41:42;8.70;78.40
55711;DHT22;41612;51.994;5.880;2023-04-15T03:44:13;8.70;78.70
55711;DHT22;41612;51.994;5.880;2023-04-15T03:46:39;8.70;78.70
55711;DHT22;41612;51.994;5.880;2023-04-15T03:49:07;8.70;78.80
55711;DHT22;41612;51.994;5.880;2023-04-15T03:51:33;8.60;78.90
55711;DHT22;41612;51.994;5.880;2023-04-15T03:54:02;8.60;78.70
55711;DHT22;41612;51.994;5.880;2023-04-15T03:56:28;8.60;79.00
55711;DHT22;41612;51.994;5.880;2023-04-15T03:58:54;8.50;79.10
55711;DHT22;41612;51.994;5.880;2023-04-15T04:01:22;8.50;79.00
55711;DHT22;41612;51.994;5.880;2023-04-15T04:03:48;8.50;78.90
55711;DHT22;41612;51.994;5.880;2023-04-15T04:06:14;8.50;79.00
55711;DHT22;41612;51.994;5.880;2023-04-15T04:08:40;8.40;79.30
55711;DHT22;41612;51.994;5.880;2023-04-15T04:11:06;8.40;79.10
55711;DHT22;41612;51.994;5.880;2023-04-15T04:13:31;8.30;79.30
55711;DHT22;41612;51.994;5.880;2023-04-15T04:15:57;8.30;79.50
55711;DHT22;41612;51.994;5.880;2023-04-15T04:18:23;8.30;79.50
55711;DHT22;41612;51.994;5.880;2023-04-15T04:20:48;8.30;79.60
55711;DHT22;41612;51.994;5.880;2023-04-15T04:23:17;8.30;79.70
55711;DHT22;41612;51.994;5.880;2023-04-15T04:25:43;8.30;79.70
55711;DHT22;41612;51.994;5.880;2023-04-15T04:28:12;8.20;79.50
55711;DHT22;41612;51.994;5.880;2023-04-15T04:30:38;8.20;79.80
55711;DHT22;41612;51.994;5.880;2023-04-15T04:33:06;8.20;79.70
55711;DHT22;41612;51.994;5.880;2023-04-15T04:35:32;8.20;79.80
55711;DHT22;41612;51.994;5.880;2023-04-15T04:38:02;8.20;80.00
55711;DHT22;41612;51.994;5.880;2023-04-15T04:40:28;8.10;80.00
55711;DHT22;41612;51.994;5.880;2023-04-15T04:42:57;8.10;80.00
55711;DHT22;41612;51.994;5.880;2023-04-15T04:45:23;8.10;80.10
55711;DHT22;41612;51.994;5.880;2023-04-15T04:47:49;8.10;80.20
55711;DHT22;41612;51.994;5.880;2023-04-15T04:50:15;8.00;80.10
55711;DHT22;41612;51.994;5.880;2023-04-15T04:52:41;8.00;80.20
55711;DHT22;41612;51.994;5.880;2023-04-15T04:55:12;8.00;80.20
55711;DHT22;41612;51.994;5.880;2023-04-15T04:57:38;8.00;80.20
55711;DHT22;41612;51.994;5.880;2023-04-15T05:00:07;8.00;80.30
55711;DHT22;41612;51.994;5.880;2023-04-15T05:02:36;8.00;80.40
55711;DHT22;41612;51.994;5.880;2023-04-15T05:05:05;7.90;80.30
55711;DHT22;41612;51.994;5.880;2023-04-15T05:07:33;7.90;80.30
55711;DHT22;41612;51.994;5.880;2023-04-15T05:09:59;7.90;80.40
55711;DHT22;41612;51.994;5.880;2023-04-15T05:12:32;7.90;80.40
55711;DHT22;41612;51.994;5.880;2023-04-15T05:14:58;7.90;80.40
55711;DHT22;41612;51.994;5.880;2023-04-15T05:17:23;7.80;80.30
55711;DHT22;41612;51.994;5.880;2023-04-15T05:19:49;7.90;80.40
55711;DHT22;41612;51.994;5.880;2023-04-15T05:22:15;7.80;80.30
55711;DHT22;41612;51.994;5.880;2023-04-15T05:24:41;7.80;80.40
55711;DHT22;41612;51.994;5.880;2023-04-15T05:27:09;7.80;80.40
55711;DHT22;41612;51.994;5.880;2023-04-15T05:29:36;7.80;80.30
55711;DHT22;41612;51.994;5.880;2023-04-15T05:32:02;7.90;80.30
55711;DHT22;41612;51.994;5.880;2023-04-15T05:34:33;7.90;80.10
55711;DHT22;41612;51.994;5.880;2023-04-15T05:36:59;7.90;80.20
55711;DHT22;41612;51.994;5.880;2023-04-15T05:39:26;7.90;80.10
55711;DHT22;41612;51.994;5.880;2023-04-15T05:41:52;7.90;80.10
55711;DHT22;41612;51.994;5.880;2023-04-15T05:44:20;8.00;79.90
55711;DHT22;41612;51.994;5.880;2023-04-15T05:46:46;7.90;79.80
55711;DHT22;41612;51.994;5.880;2023-04-15T05:49:12;8.00;79.80
55711;DHT22;41612;51.994;5.880;2023-04-15T05:51:38;7.90;79.70
55711;DHT22;41612;51.994;5.880;2023-04-15T05:54:04;8.00;79.60
55711;DHT22;41612;51.994;5.880;2023-04-15T05:56:30;8.10;79.40
55711;DHT22;41612;51.994;5.880;2023-04-15T05:58:56;8.10;79.20
55711;DHT22;41612;51.994;5.880;2023-04-15T06:01:21;8.20;78.90
55711;DHT22;41612;51.994;5.880;2023-04-15T06:03:50;8.20;78.60
55711;DHT22;41612;51.994;5.880;2023-04-15T06:06:16;8.30;78.40
55711;DHT22;41612;51.994;5.880;2023-04-15T06:08:44;8.40;78.00
55711;DHT22;41612;51.994;5.880;2023-04-15T06:11:10;8.50;77.50
55711;DHT22;41612;51.994;5.880;2023-04-15T06:13:35;8.70;77.10
55711;DHT22;41612;51.994;5.880;2023-04-15T06:16:04;8.70;76.90
55711;DHT22;41612;51.994;5.880;2023-04-15T06:18:30;8.80;76.50
55711;DHT22;41612;51.994;5.880;2023-04-15T06:20:56;8.80;76.20
55711;DHT22;41612;51.994;5.880;2023-04-15T06:23:22;8.90;75.90
55711;DHT22;41612;51.994;5.880;2023-04-15T06:25:47;8.90;75.80
55711;DHT22;41612;51.994;5.880;2023-04-15T06:28:13;9.00;75.60
55711;DHT22;41612;51.994;5.880;2023-04-15T06:30:39;9.00;75.50
55711;DHT22;41612;51.994;5.880;2023-04-15T06:33:05;9.00;75.30
55711;DHT22;41612;51.994;5.880;2023-04-15T06:35:31;9.10;75.20
55711;DHT22;41612;51.994;5.880;2023-04-15T06:37:57;9.10;75.10
55711;DHT22;41612;51.994;5.880;2023-04-15T06:40:23;9.20;74.90
55711;DHT22;41612;51.994;5.880;2023-04-15T06:42:49;9.20;74.70
55711;DHT22;41612;51.994;5.880;2023-04-15T06:45:15;9.20;74.50
55711;DHT22;41612;51.994;5.880;2023-04-15T06:47:42;9.20;74.40
55711;DHT22;41612;51.994;5.880;2023-04-15T06:50:08;9.20;74.30
55711;DHT22;41612;51.994;5.880;2023-04-15T06:52:34;9.30;74.20
55711;DHT22;41612;51.994;5.880;2023-04-15T06:55:00;9.20;74.10
55711;DHT22;41612;51.994;5.880;2023-04-15T06:57:26;9.20;74.20
55711;DHT22;41612;51.994;5.880;2023-04-15T06:59:54;9.20;74.20
55711;DHT22;41612;51.994;5.880;2023-04-15T07:02:20;9.20;74.30
55711;DHT22;41612;51.994;5.880;2023-04-15T07:04:46;9.30;74.20
55711;DHT22;41612;51.994;5.880;2023-04-15T07:07:12;9.20;74.20
55711;DHT22;41612;51.994;5.880;2023-04-15T07:09:38;9.30;74.20
55711;DHT22;41612;51.994;5.880;2023-04-15T07:12:04;9.20;74.10
55711;DHT22;41612;51.994;5.880;2023-04-15T07:14:30;9.30;74.00
55711;DHT22;41612;51.994;5.880;2023-04-15T07:16:55;9.30;74.00
55711;DHT22;41612;51.994;5.880;2023-04-15T07:19:22;9.30;73.90
55711;DHT22;41612;51.994;5.880;2023-04-15T07:21:48;9.30;73.90
55711;DHT22;41612;51.994;5.880;2023-04-15T07:24:14;9.30;73.90
55711;DHT22;41612;51.994;5.880;2023-04-15T07:26:44;9.30;73.80
55711;DHT22;41612;51.994;5.880;2023-04-15T07:29:10;9.30;73.80
55711;DHT22;41612;51.994;5.880;2023-04-15T07:31:36;9.30;73.70
55711;DHT22;41612;51.994;5.880;2023-04-15T07:34:06;9.30;73.60
55711;DHT22;41612;51.994;5.880;2023-04-15T07:36:31;9.40;73.50
55711;DHT22;41612;51.994;5.880;2023-04-15T07:38:57;9.40;73.30
55711;DHT22;41612;51.994;5.880;2023-04-15T07:41:23;9.50;73.20
55711;DHT22;41612;51.994;5.880;2023-04-15T07:43:49;9.50;73.00
55711;DHT22;41612;51.994;5.880;2023-04-15T07:46:15;9.60;72.80
55711;DHT22;41612;51.994;5.880;2023-04-15T07:48:41;9.60;72.70
